Time;durP1;ratioP1;P1;durP2;ratioP2;P2;SDS_P1;SDS_P2;PMS_P1;PMS_P2;Temp;Humidity;BMP_temperature;BMP_pressure;BME280_temperature;BME280_humidity;BME280_pressure;Samples;Min_cycle;Max_cycle;Signal;HPM_P1;HPM_P2
2022/09/06 00:01:43;;;;;;;7.90;3.50;;;19.70;99.90;;;;;;5044032;28;20450;-69
2022/09/06 00:04:08;;;;;;;10.07;3.50;;;19.70;99.90;;;;;;5042022;28;20057;-69
2022/09/06 00:06:34;;;;;;;5.65;3.17;;;19.60;99.90;;;;;;5027636;28;20048;-69
2022/09/06 00:09:01;;;;;;;5.05;3.53;;;19.60;99.90;;;;;;5035611;28;20052;-69
2022/09/06 00:11:27;;;;;;;7.95;3.65;;;19.60;99.90;;;;;;5042421;28;20127;-68
2022/09/06 00:13:52;;;;;;;6.60;3.83;;;19.50;99.90;;;;;;5040085;28;20133;-69
2022/09/06 00:16:22;;;;;;;4.45;3.58;;;19.50;99.90;;;;;;5037075;28;20049;-69
2022/09/06 00:18:49;;;;;;;7.25;3.58;;;19.50;99.90;;;;;;5031301;28;20053;-69
2022/09/06 00:21:27;;;;;;;6.45;3.47;;;19.40;99.90;;;;;;5041308;28;20049;-69
2022/09/06 00:23:53;;;;;;;5.03;3.15;;;19.40;99.90;;;;;;5041676;28;20044;-69
2022/09/06 00:26:20;;;;;;;5.03;3.60;;;19.30;99.90;;;;;;5031155;28;20053;-70
2022/09/06 00:28:45;;;;;;;6.13;3.20;;;19.40;99.90;;;;;;5033703;28;20052;-69
2022/09/06 00:31:14;;;;;;;5.50;3.28;;;19.30;99.90;;;;;;5043310;28;20041;-69
2022/09/06 00:33:40;;;;;;;5.75;3.50;;;19.30;99.90;;;;;;5043996;28;20114;-69
2022/09/06 00:36:06;;;;;;;5.72;3.30;;;19.30;99.90;;;;;;5042675;28;20037;-70
2022/09/06 00:38:32;;;;;;;6.47;3.55;;;19.20;99.90;;;;;;5033915;28;20488;-69
2022/09/06 00:40:58;;;;;;;8.90;3.65;;;19.10;99.90;;;;;;5045240;28;20045;-69
2022/09/06 00:43:24;;;;;;;4.25;3.22;;;19.10;99.90;;;;;;5042917;28;20078;-69
2022/09/06 00:45:51;;;;;;;7.80;3.63;;;19.20;99.90;;;;;;5043334;28;20056;-69
2022/09/06 00:48:17;;;;;;;8.02;3.58;;;19.10;99.90;;;;;;5025108;28;20160;-69
2022/09/06 00:50:46;;;;;;;7.03;3.63;;;19.00;99.90;;;;;;5043705;28;20120;-69
2022/09/06 00:53:12;;;;;;;4.90;3.40;;;19.00;99.90;;;;;;5044453;28;20041;-69
2022/09/06 00:55:40;;;;;;;6.07;3.47;;;18.90;99.90;;;;;;5043891;28;20492;-69
2022/09/06 00:58:06;;;;;;;3.95;3.47;;;18.90;99.90;;;;;;5026139;28;20045;-69
2022/09/06 01:00:32;;;;;;;4.57;3.63;;;18.90;99.90;;;;;;5040141;28;20129;-69
2022/09/06 01:02:57;;;;;;;6.13;3.90;;;18.80;99.90;;;;;;5042356;28;20477;-69
2022/09/06 01:05:30;;;;;;;4.82;3.47;;;18.90;99.90;;;;;;5043439;28;20060;-69
2022/09/06 01:08:03;;;;;;;6.05;3.58;;;18.90;99.90;;;;;;5021749;28;20041;-68
2022/09/06 01:10:58;;;;;;;6.32;3.55;;;18.90;99.90;;;;;;5038353;28;20065;-69
2022/09/06 01:14:01;;;;;;;5.93;3.90;;;18.80;99.90;;;;;;5039946;28;20194;-69
2022/09/06 01:16:55;;;;;;;6.70;4.00;;;18.70;99.90;;;;;;5030552;28;20128;-69
2022/09/06 01:20:18;;;;;;;4.78;3.60;;;18.70;99.90;;;;;;5036769;28;20117;-69
2022/09/06 01:23:23;;;;;;;6.20;3.70;;;18.70;99.90;;;;;;4977214;28;20058;-69
2022/09/06 01:26:06;;;;;;;5.25;4.05;;;18.70;99.90;;;;;;4985414;28;20085;-69
2022/09/06 01:28:37;;;;;;;4.72;3.72;;;18.60;99.90;;;;;;5019534;28;20046;-69
2022/09/06 01:31:31;;;;;;;7.38;4.22;;;18.50;99.90;;;;;;5040414;28;20052;-69
2022/09/06 01:34:27;;;;;;;5.45;4.32;;;18.50;99.90;;;;;;5041265;28;20090;-69
2022/09/06 01:37:08;;;;;;;6.53;4.32;;;18.60;99.90;;;;;;5024084;28;20065;-69
2022/09/06 01:39:35;;;;;;;5.22;3.90;;;18.50;99.90;;;;;;5041637;28;20114;-69
2022/09/06 01:42:06;;;;;;;7.53;4.47;;;18.50;99.90;;;;;;5042435;28;20053;-69
2022/09/06 01:44:33;;;;;;;5.85;4.40;;;18.40;99.90;;;;;;5035177;28;20096;-69
2022/09/06 01:47:20;;;;;;;6.72;4.38;;;18.40;99.90;;;;;;5025961;28;20091;-69
2022/09/06 01:50:07;;;;;;;6.95;4.10;;;18.40;99.90;;;;;;5042344;28;20550;-69
2022/09/06 01:52:55;;;;;;;5.28;4.00;;;18.40;99.90;;;;;;5040837;28;20107;-69
2022/09/06 01:56:05;;;;;;;7.07;4.00;;;18.30;99.90;;;;;;5041437;28;20045;-69
2022/09/06 01:59:00;;;;;;;6.10;4.18;;;18.30;99.90;;;;;;4951018;28;20047;-69
2022/09/06 02:01:37;;;;;;;8.57;4.60;;;18.30;99.90;;;;;;4967484;28;20086;-68
2022/09/06 02:04:11;;;;;;;5.45;4.28;;;18.20;99.90;;;;;;5019258;28;20055;-69
2022/09/06 02:06:48;;;;;;;6.53;4.10;;;18.20;99.90;;;;;;5023807;28;20365;-69
2022/09/06 02:09:20;;;;;;;6.95;4.05;;;18.20;99.90;;;;;;5033285;28;20287;-69
2022/09/06 02:11:59;;;;;;;4.80;4.10;;;18.20;99.90;;;;;;5041079;28;20098;-69
2022/09/06 02:14:32;;;;;;;5.85;3.95;;;18.10;99.90;;;;;;5038755;28;20046;-68
2022/09/06 02:16:59;;;;;;;7.03;3.90;;;18.10;99.90;;;;;;5023606;28;20061;-69
2022/09/06 02:19:48;;;;;;;6.18;4.20;;;18.10;99.90;;;;;;5040637;28;20136;-68
2022/09/06 02:22:17;;;;;;;8.40;3.75;;;18.10;99.90;;;;;;5038483;28;20382;-69
2022/09/06 02:24:46;;;;;;;7.55;4.53;;;18.10;99.90;;;;;;5038637;28;20057;-68
2022/09/06 02:27:13;;;;;;;5.53;4.57;;;18.10;99.90;;;;;;5020386;28;20041;-68
2022/09/06 02:29:39;;;;;;;5.72;4.43;;;18.10;99.90;;;;;;5038537;28;20575;-69
2022/09/06 02:32:20;;;;;;;6.65;4.07;;;18.10;99.90;;;;;;5039927;28;20163;-68
2022/09/06 02:34:46;;;;;;;8.05;4.57;;;18.10;99.90;;;;;;5042674;28;20110;-69
2022/09/06 02:37:12;;;;;;;5.13;4.43;;;18.10;99.90;;;;;;5026067;28;20061;-68
2022/09/06 02:39:38;;;;;;;5.30;4.15;;;18.00;99.90;;;;;;5021439;28;20531;-69
2022/09/06 02:42:06;;;;;;;7.10;4.50;;;18.00;99.90;;;;;;5037759;28;20049;-68
2022/09/06 02:44:32;;;;;;;5.70;4.30;;;18.00;99.90;;;;;;5038438;28;20314;-68
2022/09/06 02:46:57;;;;;;;6.53;4.20;;;17.90;99.90;;;;;;4985521;28;1076275;-69
2022/09/06 02:49:23;;;;;;;5.95;4.40;;;18.00;99.90;;;;;;5041668;28;20049;-69
2022/09/06 02:51:49;;;;;;;11.30;4.50;;;17.90;99.90;;;;;;5041895;28;20053;-69
2022/09/06 02:54:15;;;;;;;6.07;4.30;;;17.90;99.90;;;;;;5040285;28;20124;-69
2022/09/06 02:56:41;;;;;;;9.32;5.10;;;17.90;99.90;;;;;;5031791;28;20443;-68
2022/09/06 02:59:06;;;;;;;6.85;4.43;;;17.90;99.90;;;;;;5040621;28;20136;-69
2022/09/06 03:01:32;;;;;;;8.38;5.10;;;17.80;99.90;;;;;;5027243;28;20491;-68
2022/09/06 03:03:58;;;;;;;5.95;4.70;;;17.80;99.90;;;;;;5037920;28;20152;-69
2022/09/06 03:06:24;;;;;;;6.63;4.50;;;17.80;99.90;;;;;;5024395;28;20049;-69
2022/09/06 03:08:50;;;;;;;5.97;4.60;;;17.80;99.90;;;;;;5033494;28;20132;-69
2022/09/06 03:11:16;;;;;;;6.07;4.45;;;17.70;99.90;;;;;;5040513;28;20112;-69
2022/09/06 03:13:41;;;;;;;5.43;4.78;;;17.70;99.90;;;;;;5036648;28;20484;-68
2022/09/06 03:16:07;;;;;;;5.82;5.10;;;17.70;99.90;;;;;;5019986;28;20037;-69
2022/09/06 03:18:33;;;;;;;5.88;5.03;;;17.60;99.90;;;;;;5025935;28;20132;-69
2022/09/06 03:20:59;;;;;;;6.07;4.63;;;17.70;99.90;;;;;;5040485;28;20152;-69
2022/09/06 03:23:27;;;;;;;5.88;4.57;;;17.70;99.90;;;;;;5041596;28;20591;-69
2022/09/06 03:25:53;;;;;;;5.10;4.60;;;17.60;99.90;;;;;;5037913;28;20174;-69
2022/09/06 03:28:19;;;;;;;7.07;5.10;;;17.70;99.90;;;;;;5023092;28;20512;-68
2022/09/06 03:30:46;;;;;;;8.38;5.18;;;17.70;99.90;;;;;;5038991;28;20103;-69
2022/09/06 03:33:12;;;;;;;8.60;4.65;;;17.60;99.90;;;;;;5041065;28;20519;-68
2022/09/06 03:35:38;;;;;;;8.23;5.18;;;17.70;99.90;;;;;;5006923;28;20046;-69
2022/09/06 03:38:04;;;;;;;6.45;4.50;;;17.60;99.90;;;;;;5027590;28;20088;-68
2022/09/06 03:40:30;;;;;;;5.78;4.82;;;17.70;99.90;;;;;;5040920;28;20111;-68
2022/09/06 03:42:56;;;;;;;6.90;4.82;;;17.60;99.90;;;;;;5023805;28;20049;-69
2022/09/06 03:45:21;;;;;;;6.55;5.22;;;17.70;99.90;;;;;;5043937;28;20080;-68
2022/09/06 03:47:47;;;;;;;7.47;5.30;;;17.70;99.90;;;;;;5026633;28;20470;-69
2022/09/06 03:50:13;;;;;;;5.95;5.38;;;17.70;99.90;;;;;;5048465;28;20053;-68
2022/09/06 03:52:39;;;;;;;8.15;4.95;;;17.60;99.90;;;;;;5041367;28;20059;-68
2022/09/06 03:55:05;;;;;;;7.78;5.15;;;17.60;99.90;;;;;;5044079;28;20056;-68
2022/09/06 03:57:31;;;;;;;6.93;4.90;;;17.60;99.90;;;;;;5030584;28;20045;-68
2022/09/06 03:59:57;;;;;;;7.60;4.95;;;17.60;99.90;;;;;;5042304;28;20037;-68
2022/09/06 04:02:22;;;;;;;5.65;5.03;;;17.60;99.90;;;;;;5040070;28;20115;-68
2022/09/06 04:04:48;;;;;;;8.55;5.22;;;17.60;99.90;;;;;;5041343;28;20068;-69
2022/09/06 04:07:14;;;;;;;7.93;5.22;;;17.60;99.90;;;;;;5006153;28;20128;-68
2022/09/06 04:09:39;;;;;;;6.15;5.00;;;17.60;99.90;;;;;;5043127;28;20145;-68
2022/09/06 04:12:05;;;;;;;6.10;5.22;;;17.60;99.90;;;;;;5026071;28;20506;-69
2022/09/06 04:14:31;;;;;;;9.02;5.35;;;17.50;99.90;;;;;;5039717;28;20516;-69
2022/09/06 04:16:56;;;;;;;6.82;5.35;;;17.60;99.90;;;;;;5023458;28;20072;-69
2022/09/06 04:19:22;;;;;;;7.55;5.35;;;17.60;99.90;;;;;;5040193;28;20409;-69
2022/09/06 04:21:48;;;;;;;8.65;5.82;;;17.60;99.90;;;;;;5042805;28;20132;-69
2022/09/06 04:24:14;;;;;;;7.60;5.30;;;17.60;99.90;;;;;;5041279;28;20132;-69
2022/09/06 04:26:39;;;;;;;9.60;5.57;;;17.60;99.90;;;;;;5026010;28;20310;-69
2022/09/06 04:29:05;;;;;;;5.55;5.05;;;17.70;99.90;;;;;;5039852;28;20049;-68
2022/09/06 04:31:31;;;;;;;10.18;5.80;;;17.70;99.90;;;;;;5041185;28;20037;-69
2022/09/06 04:33:56;;;;;;;7.75;5.43;;;17.80;99.90;;;;;;5043838;28;20095;-68
2022/09/06 04:36:22;;;;;;;8.85;5.43;;;17.80;99.90;;;;;;5034629;28;20492;-69
2022/09/06 04:38:48;;;;;;;8.52;5.50;;;17.80;99.90;;;;;;5038076;28;20455;-69
2022/09/06 04:41:16;;;;;;;6.97;5.25;;;17.90;99.90;;;;;;5038937;28;20056;-68
2022/09/06 04:43:42;;;;;;;6.43;5.45;;;17.90;99.90;;;;;;5025024;28;20047;-69
2022/09/06 04:46:17;;;;;;;6.43;5.00;;;17.90;99.90;;;;;;5036615;28;20048;-69
2022/09/06 04:48:43;;;;;;;7.22;5.53;;;17.80;99.90;;;;;;5035255;28;20111;-69
2022/09/06 04:51:09;;;;;;;6.60;5.40;;;17.90;99.90;;;;;;5045290;28;20041;-68
2022/09/06 04:53:34;;;;;;;7.97;5.60;;;17.90;99.90;;;;;;5044515;28;20053;-69
2022/09/06 04:56:00;;;;;;;7.63;6.05;;;17.80;99.90;;;;;;5044478;28;20087;-69
2022/09/06 04:58:26;;;;;;;6.57;5.97;;;17.80;99.90;;;;;;5026080;28;20051;-69
2022/09/06 05:00:52;;;;;;;7.05;5.93;;;17.80;99.90;;;;;;5040241;28;20053;-69
2022/09/06 05:03:18;;;;;;;10.25;6.43;;;17.80;99.90;;;;;;5044739;28;20081;-68
2022/09/06 05:05:43;;;;;;;9.98;7.13;;;17.70;99.90;;;;;;5041524;28;20400;-68
2022/09/06 05:08:09;;;;;;;12.23;7.22;;;17.60;99.90;;;;;;5026715;28;20053;-69
2022/09/06 05:10:35;;;;;;;9.27;7.05;;;17.60;99.90;;;;;;5044279;28;20037;-69
2022/09/06 05:13:00;;;;;;;8.50;7.00;;;17.50;99.90;;;;;;5041745;28;20037;-68
2022/09/06 05:15:26;;;;;;;10.63;7.10;;;17.50;99.90;;;;;;5038908;28;20073;-69
2022/09/06 05:17:51;;;;;;;9.77;7.20;;;17.50;99.90;;;;;;5026117;28;20044;-68
2022/09/06 05:20:17;;;;;;;8.63;7.60;;;17.60;99.90;;;;;;5041383;28;20044;-69
2022/09/06 05:22:52;;;;;;;9.13;7.80;;;17.60;99.90;;;;;;5040893;28;20068;-69
2022/09/06 05:25:17;;;;;;;13.75;7.50;;;17.60;99.90;;;;;;5039726;28;20042;-68
2022/09/06 05:27:43;;;;;;;9.43;7.32;;;17.60;99.90;;;;;;5025841;28;20098;-69
2022/09/06 05:30:09;;;;;;;11.63;7.72;;;17.70;99.90;;;;;;5040810;28;20076;-69
2022/09/06 05:32:35;;;;;;;8.68;7.80;;;17.70;99.90;;;;;;5045537;28;20487;-69
2022/09/06 05:35:00;;;;;;;11.18;7.93;;;17.70;99.90;;;;;;5045909;28;20087;-69
2022/09/06 05:37:26;;;;;;;9.20;7.45;;;17.60;99.90;;;;;;5026184;28;20160;-69
2022/09/06 05:39:52;;;;;;;10.57;7.78;;;17.60;99.90;;;;;;5037679;28;20365;-69
2022/09/06 05:42:17;;;;;;;11.18;8.23;;;17.70;99.90;;;;;;5040585;28;20041;-69
2022/09/06 05:44:43;;;;;;;13.50;7.78;;;17.70;99.90;;;;;;5041457;28;20040;-69
2022/09/06 05:47:09;;;;;;;11.80;7.70;;;17.60;99.90;;;;;;5023279;28;20063;-69
2022/09/06 05:49:34;;;;;;;8.85;7.95;;;17.60;99.90;;;;;;5045862;28;20095;-69
2022/09/06 05:52:00;;;;;;;9.07;8.10;;;17.50;99.90;;;;;;5042144;28;20102;-69
2022/09/06 05:54:26;;;;;;;11.40;8.93;;;17.50;99.90;;;;;;5041840;28;20439;-69
2022/09/06 05:56:51;;;;;;;11.45;8.70;;;17.50;99.90;;;;;;5028693;28;20068;-69
2022/09/06 05:59:17;;;;;;;9.13;8.23;;;17.50;99.90;;;;;;5038194;28;20107;-69
2022/09/06 06:01:48;;;;;;;9.30;8.32;;;17.40;99.90;;;;;;5038980;28;20331;-68
2022/09/06 06:04:14;;;;;;;9.93;8.93;;;17.40;99.90;;;;;;5034952;28;20041;-68
2022/09/06 06:06:40;;;;;;;10.93;9.20;;;17.40;99.90;;;;;;5025421;28;20480;-69
2022/09/06 06:09:05;;;;;;;9.75;8.75;;;17.40;99.90;;;;;;5038187;28;20083;-69
2022/09/06 06:11:31;;;;;;;9.82;8.35;;;17.40;99.90;;;;;;5041201;28;20041;-68
2022/09/06 06:13:57;;;;;;;12.40;8.93;;;17.40;99.90;;;;;;5036748;28;20327;-68
2022/09/06 06:16:24;;;;;;;11.48;8.80;;;17.50;99.90;;;;;;5026584;28;20037;-69
2022/09/06 06:18:50;;;;;;;10.27;9.30;;;17.50;99.90;;;;;;5036174;28;20037;-68
2022/09/06 06:21:27;;;;;;;11.98;9.00;;;17.50;99.90;;;;;;5041080;28;20040;-68
2022/09/06 06:23:59;;;;;;;10.45;8.60;;;17.50;99.90;;;;;;5036213;28;20041;-68
2022/09/06 06:26:26;;;;;;;10.73;8.98;;;17.50;99.90;;;;;;5025243;28;20041;-69
2022/09/06 06:28:52;;;;;;;11.77;9.32;;;17.50;99.90;;;;;;5038078;28;20508;-68
2022/09/06 06:31:20;;;;;;;12.85;9.10;;;17.50;99.90;;;;;;5044003;28;20400;-68
2022/09/06 06:33:47;;;;;;;11.35;9.98;;;17.50;99.90;;;;;;5042831;28;20044;-68
2022/09/06 06:36:12;;;;;;;12.38;10.25;;;17.50;99.90;;;;;;5036009;28;20055;-69
2022/09/06 06:38:40;;;;;;;11.63;9.75;;;17.50;99.90;;;;;;5032868;28;20057;-68
2022/09/06 06:41:07;;;;;;;10.18;9.10;;;17.50;99.90;;;;;;5038562;28;20080;-67
2022/09/06 06:43:36;;;;;;;11.55;9.40;;;17.50;99.90;;;;;;5041647;28;20045;-68
2022/09/06 06:46:13;;;;;;;10.80;9.70;;;17.50;99.90;;;;;;5042672;28;20044;-69
2022/09/06 06:48:40;;;;;;;15.00;10.38;;;17.60;99.90;;;;;;5032906;28;20052;-68
2022/09/06 06:51:06;;;;;;;13.77;10.05;;;17.60;99.90;;;;;;5039943;28;20049;-68
2022/09/06 06:53:34;;;;;;;11.07;9.68;;;17.70;99.90;;;;;;5040388;28;20045;-68
2022/09/06 06:56:00;;;;;;;11.35;10.15;;;17.80;99.90;;;;;;5045128;28;20041;-66
2022/09/06 06:58:26;;;;;;;12.90;10.00;;;17.90;99.90;;;;;;5026327;28;20439;-68
2022/09/06 07:00:51;;;;;;;11.52;10.43;;;17.90;99.90;;;;;;5040538;28;20399;-69
2022/09/06 07:03:17;;;;;;;16.67;11.23;;;18.00;99.90;;;;;;5037886;28;20041;-68
2022/09/06 07:05:45;;;;;;;12.35;10.90;;;18.10;99.90;;;;;;5034991;28;20128;-69
2022/09/06 07:08:11;;;;;;;13.48;11.18;;;18.20;99.90;;;;;;5026625;28;20404;-69
2022/09/06 07:10:37;;;;;;;15.25;10.88;;;18.30;99.90;;;;;;5039898;28;20052;-69
2022/09/06 07:13:02;;;;;;;12.65;11.00;;;18.40;99.90;;;;;;5041122;28;20438;-68
2022/09/06 07:15:28;;;;;;;11.93;10.63;;;18.50;99.90;;;;;;5039306;28;20090;-69
2022/09/06 07:17:55;;;;;;;11.52;10.43;;;18.60;99.90;;;;;;5028749;28;20531;-68
2022/09/06 07:20:21;;;;;;;14.73;11.43;;;18.60;99.90;;;;;;5043402;28;20096;-68
2022/09/06 07:22:58;;;;;;;14.23;11.55;;;18.70;99.90;;;;;;5042095;28;20454;-69
2022/09/06 07:25:24;;;;;;;18.80;11.27;;;18.80;99.90;;;;;;5041391;28;20092;-69
2022/09/06 07:28:07;;;;;;;12.68;11.07;;;18.70;99.90;;;;;;5039256;28;20397;-68
2022/09/06 07:30:36;;;;;;;13.88;11.35;;;18.80;99.90;;;;;;5046964;28;20045;-69
2022/09/06 07:33:06;;;;;;;16.15;11.43;;;18.80;99.90;;;;;;5045949;28;20388;-69
2022/09/06 07:35:32;;;;;;;12.73;11.50;;;18.90;99.90;;;;;;5046248;28;20119;-69
2022/09/06 07:37:59;;;;;;;13.27;11.63;;;19.00;99.90;;;;;;5041709;28;20465;-69
2022/09/06 07:40:27;;;;;;;14.10;11.65;;;19.00;99.90;;;;;;5044254;28;20095;-69
2022/09/06 07:42:57;;;;;;;13.00;11.63;;;19.10;99.90;;;;;;5044855;28;20508;-69
2022/09/06 07:45:23;;;;;;;13.40;11.57;;;19.20;99.90;;;;;;5042434;28;20132;-69
2022/09/06 07:47:59;;;;;;;16.42;11.75;;;19.20;99.90;;;;;;5042759;28;20145;-69
2022/09/06 07:50:26;;;;;;;16.05;12.05;;;19.20;99.90;;;;;;5043647;28;20048;-69
2022/09/06 07:52:52;;;;;;;15.50;12.48;;;19.40;99.90;;;;;;5046324;28;20124;-70
2022/09/06 07:55:18;;;;;;;15.27;11.70;;;19.50;99.90;;;;;;5048517;28;20120;-69
2022/09/06 07:57:43;;;;;;;13.50;12.10;;;19.70;99.90;;;;;;5044066;28;20390;-70
2022/09/06 08:00:10;;;;;;;13.30;11.93;;;19.80;99.90;;;;;;5045138;28;20053;-70
2022/09/06 08:02:36;;;;;;;13.82;12.25;;;19.90;99.90;;;;;;5039252;28;20049;-69
2022/09/06 08:05:02;;;;;;;15.35;11.88;;;20.00;99.90;;;;;;5044382;28;20067;-70
2022/09/06 08:07:28;;;;;;;14.73;12.00;;;20.00;99.90;;;;;;5044559;28;20038;-70
2022/09/06 08:09:54;;;;;;;15.20;12.32;;;20.00;99.90;;;;;;5041682;28;20048;-70
2022/09/06 08:12:20;;;;;;;14.00;11.85;;;20.00;99.90;;;;;;5041006;28;20083;-69
2022/09/06 08:14:45;;;;;;;14.57;11.70;;;20.00;99.90;;;;;;5040756;28;20045;-70
2022/09/06 08:17:11;;;;;;;15.45;11.35;;;20.10;99.90;;;;;;5043026;28;20119;-70
2022/09/06 08:19:37;;;;;;;17.35;11.85;;;20.20;99.90;;;;;;5044840;28;20377;-69
2022/09/06 08:22:03;;;;;;;12.68;11.13;;;20.30;99.90;;;;;;5040926;28;20051;-70
2022/09/06 08:24:28;;;;;;;16.55;11.30;;;20.40;99.90;;;;;;5038619;28;20044;-70
2022/09/06 08:26:54;;;;;;;14.63;12.18;;;20.40;99.90;;;;;;5039166;28;20160;-70
2022/09/06 08:29:20;;;;;;;16.15;12.02;;;20.40;99.90;;;;;;5043143;28;20065;-70
2022/09/06 08:31:46;;;;;;;16.48;12.35;;;20.50;99.90;;;;;;5044483;28;20048;-70
2022/09/06 08:34:13;;;;;;;15.13;11.55;;;20.50;99.90;;;;;;5043050;28;20044;-70
2022/09/06 08:36:39;;;;;;;14.65;11.30;;;20.70;99.90;;;;;;5041662;28;20526;-70
2022/09/06 08:39:07;;;;;;;18.73;11.20;;;20.70;99.90;;;;;;5041386;28;20127;-70
2022/09/06 08:41:54;;;;;;;14.82;11.48;;;20.80;99.90;;;;;;5043688;28;20091;-71
2022/09/06 08:44:26;;;;;;;15.63;12.48;;;20.90;99.90;;;;;;5038809;28;20484;-70
2022/09/06 08:46:56;;;;;;;17.08;12.07;;;20.90;99.90;;;;;;5044127;28;20623;-70
2022/09/06 08:49:31;;;;;;;18.38;11.50;;;20.90;99.90;;;;;;5042385;28;20048;-70
2022/09/06 08:52:08;;;;;;;12.38;11.05;;;21.00;99.90;;;;;;5044831;28;20033;-70
2022/09/06 08:54:48;;;;;;;13.30;10.90;;;21.00;99.90;;;;;;5044745;28;20049;-70
2022/09/06 08:57:27;;;;;;;12.43;11.00;;;21.20;99.90;;;;;;5040309;28;20381;-70
2022/09/06 08:59:59;;;;;;;14.32;11.52;;;21.20;99.90;;;;;;5040428;28;20041;-71
2022/09/06 09:02:26;;;;;;;16.35;12.20;;;21.30;99.90;;;;;;5038796;28;20055;-70
2022/09/06 09:04:55;;;;;;;12.85;11.02;;;21.40;99.90;;;;;;5047134;28;20056;-70
2022/09/06 09:07:43;;;;;;;12.43;10.43;;;21.40;99.90;;;;;;5040300;28;20358;-70
2022/09/06 09:10:17;;;;;;;13.43;10.27;;;21.60;99.90;;;;;;5045528;28;20052;-71
2022/09/06 09:12:47;;;;;;;11.23;9.68;;;21.70;99.90;;;;;;5038125;28;20091;-70
2022/09/06 09:15:18;;;;;;;11.23;10.07;;;21.80;99.90;;;;;;5041952;28;20059;-71
2022/09/06 09:17:45;;;;;;;;;;;22.00;99.90;;;;;;5043208;28;20033;-70
2022/09/06 09:20:11;;;;;;;14.80;10.88;;;22.10;99.90;;;;;;5040811;28;20354;-71
2022/09/06 09:22:37;;;;;;;15.23;10.98;;;22.00;99.90;;;;;;5039389;28;20044;-71
2022/09/06 09:25:05;;;;;;;13.25;10.10;;;22.10;99.90;;;;;;5042193;28;20057;-70
2022/09/06 09:27:32;;;;;;;13.18;10.27;;;22.20;99.90;;;;;;5040938;28;20044;-70
2022/09/06 09:30:00;;;;;;;16.77;9.52;;;22.30;99.90;;;;;;5043753;28;20643;-70
2022/09/06 09:32:30;;;;;;;12.73;9.52;;;22.50;99.90;;;;;;5046319;28;20044;-71
2022/09/06 09:35:18;;;;;;;11.63;10.43;;;22.60;99.90;;;;;;5038166;28;20060;-71
2022/09/06 09:37:45;;;;;;;12.75;10.02;;;22.60;99.90;;;;;;5037478;28;20383;-71
2022/09/06 09:40:38;;;;;;;12.32;9.45;;;22.50;99.90;;;;;;5041228;28;20053;-70
2022/09/06 09:43:23;;;;;;;11.13;9.30;;;22.60;99.90;;;;;;5039357;28;20076;-71
2022/09/06 09:46:10;;;;;;;10.07;8.50;;;22.70;99.90;;;;;;5040857;28;20455;-71
2022/09/06 09:48:36;;;;;;;13.20;9.25;;;22.70;99.90;;;;;;5039543;28;20053;-70
2022/09/06 09:51:24;;;;;;;9.57;8.68;;;22.80;99.90;;;;;;5044468;28;20044;-71
2022/09/06 09:54:08;;;;;;;12.27;8.15;;;23.00;99.90;;;;;;5043596;28;20133;-71
2022/09/06 09:56:39;;;;;;;9.27;7.75;;;23.00;99.90;;;;;;5041657;28;20400;-70
2022/09/06 09:59:27;;;;;;;10.40;7.82;;;23.10;99.90;;;;;;5037331;28;20053;-70
2022/09/06 10:02:00;;;;;;;11.82;7.85;;;23.30;99.90;;;;;;5039892;28;20155;-71
2022/09/06 10:04:30;;;;;;;10.93;7.90;;;23.40;99.90;;;;;;5040387;28;20060;-71
2022/09/06 10:07:15;;;;;;;8.45;6.75;;;23.50;99.90;;;;;;5041550;28;20049;-71
2022/09/06 10:09:45;;;;;;;12.43;7.80;;;23.60;99.90;;;;;;5036670;28;20053;-71
2022/09/06 10:12:37;;;;;;;9.30;7.40;;;23.50;99.90;;;;;;5033559;28;20060;-71
2022/09/06 10:15:05;;;;;;;10.55;8.50;;;23.60;99.90;;;;;;5032646;28;20522;-71
2022/09/06 10:17:50;;;;;;;11.68;8.20;;;23.60;99.90;;;;;;5041540;28;20041;-71
2022/09/06 10:20:16;;;;;;;11.73;8.07;;;23.70;99.90;;;;;;5035303;28;20496;-71
2022/09/06 10:23:03;;;;;;;10.15;7.93;;;23.70;99.90;;;;;;5039428;28;20508;-71
2022/09/06 10:25:51;;;;;;;12.15;8.55;;;23.70;99.90;;;;;;5037701;28;20060;-71
2022/09/06 10:28:30;;;;;;;11.10;9.20;;;23.60;99.90;;;;;;5037783;28;20670;-71
2022/09/06 10:31:35;;;;;;;14.45;9.20;;;23.60;99.90;;;;;;5043003;28;20088;-71
2022/09/06 10:34:25;;;;;;;12.00;9.95;;;23.60;99.90;;;;;;4980842;28;20050;-71
2022/09/06 10:37:19;;;;;;;11.13;9.43;;;23.70;99.90;;;;;;5039000;28;20464;-71
2022/09/06 10:39:54;;;;;;;13.63;10.20;;;23.60;99.90;;;;;;5040792;28;20057;-71
2022/09/06 10:42:23;;;;;;;15.05;10.77;;;23.60;99.90;;;;;;5039739;28;20091;-70
2022/09/06 10:45:07;;;;;;;13.00;10.10;;;23.40;99.90;;;;;;5039399;28;20045;-71
2022/09/06 10:48:06;;;;;;;14.05;8.98;;;23.40;99.90;;;;;;5041416;28;20060;-70
2022/09/06 10:50:50;;;;;;;13.18;9.63;;;23.50;99.90;;;;;;5062234;28;20095;-71
2022/09/06 10:53:46;;;;;;;10.45;8.65;;;23.50;99.90;;;;;;5028730;28;20049;-71
2022/09/06 10:56:27;;;;;;;13.40;9.23;;;23.50;99.90;;;;;;5043213;28;20059;-71
2022/09/06 10:59:01;;;;;;;11.63;8.65;;;23.60;99.90;;;;;;5043781;28;20049;-72
2022/09/06 11:01:41;;;;;;;13.43;8.90;;;23.60;99.90;;;;;;5040380;28;20489;-71
2022/09/06 11:04:21;;;;;;;13.50;10.30;;;23.60;99.90;;;;;;5042876;28;20053;-71
2022/09/06 11:06:54;;;;;;;10.98;9.45;;;23.50;99.90;;;;;;5043069;28;20041;-71
2022/09/06 11:09:30;;;;;;;13.18;8.85;;;23.70;99.90;;;;;;5040899;28;20046;-71
2022/09/06 11:12:04;;;;;;;14.68;8.70;;;23.80;99.90;;;;;;5042681;28;20056;-71
2022/09/06 11:14:30;;;;;;;11.35;8.77;;;23.80;99.90;;;;;;5043551;28;20047;-70
2022/09/06 11:17:05;;;;;;;12.68;9.85;;;23.70;99.90;;;;;;5044231;28;20338;-70
2022/09/06 11:19:46;;;;;;;11.00;9.55;;;23.90;99.90;;;;;;5042964;28;20050;-70
2022/09/06 11:22:25;;;;;;;12.82;9.30;;;23.80;99.90;;;;;;5041086;28;20045;-71
2022/09/06 11:25:15;;;;;;;11.68;9.25;;;24.00;99.90;;;;;;5040720;28;20449;-71
2022/09/06 11:27:44;;;;;;;10.60;9.50;;;24.00;99.90;;;;;;5044349;28;20095;-70
2022/09/06 11:30:15;;;;;;;10.98;8.82;;;24.10;99.90;;;;;;5028206;28;20515;-71
2022/09/06 11:32:48;;;;;;;16.33;9.57;;;24.20;99.90;;;;;;5040626;28;20045;-71
2022/09/06 11:35:35;;;;;;;9.82;8.63;;;24.20;99.90;;;;;;5044991;28;20138;-71
2022/09/06 11:38:23;;;;;;;10.77;8.43;;;24.10;99.90;;;;;;5045696;28;20116;-72
2022/09/06 11:40:59;;;;;;;9.38;8.43;;;24.00;99.90;;;;;;5034746;28;20072;-70
2022/09/06 11:43:45;;;;;;;11.70;8.55;;;24.00;99.90;;;;;;5041901;28;20603;-72
2022/09/06 11:46:34;;;;;;;11.23;9.43;;;24.10;99.90;;;;;;5041441;28;20215;-70
2022/09/06 11:49:04;;;;;;;12.77;8.88;;;24.00;99.90;;;;;;5040448;28;20463;-70
2022/09/06 11:51:43;;;;;;;10.35;9.18;;;24.10;99.90;;;;;;5044915;28;20064;-71
2022/09/06 11:54:15;;;;;;;14.50;9.00;;;24.20;99.90;;;;;;5047012;28;20413;-71
2022/09/06 11:56:50;;;;;;;13.57;8.77;;;24.40;99.90;;;;;;5043873;28;20098;-72
2022/09/06 11:59:17;;;;;;;12.90;9.05;;;24.50;99.90;;;;;;5039637;28;20051;-71
2022/09/06 12:01:55;;;;;;;9.63;8.32;;;24.60;99.90;;;;;;5041495;28;20045;-71
2022/09/06 12:04:22;;;;;;;15.00;8.40;;;24.70;99.90;;;;;;5038906;28;20136;-73
2022/09/06 12:07:06;;;;;;;9.45;7.55;;;24.70;99.90;;;;;;5039569;28;20083;-71
2022/09/06 12:09:41;;;;;;;12.45;7.82;;;24.60;99.90;;;;;;5041012;28;20045;-71
2022/09/06 12:12:08;;;;;;;9.95;7.53;;;24.70;99.90;;;;;;5037299;28;20492;-71
2022/09/06 12:14:44;;;;;;;9.77;7.85;;;24.70;99.90;;;;;;5042033;28;20052;-71
2022/09/06 12:17:13;;;;;;;11.45;7.88;;;24.90;99.90;;;;;;5041892;28;20423;-71
2022/09/06 12:20:05;;;;;;;11.50;7.03;;;25.00;99.90;;;;;;5040480;28;20045;-71
2022/09/06 12:22:52;;;;;;;9.70;5.97;;;24.90;99.90;;;;;;5040391;28;20042;-71
2022/09/06 12:25:39;;;;;;;12.68;6.60;;;25.20;99.90;;;;;;5042272;28;20080;-71
2022/09/06 12:28:11;;;;;;;9.00;6.28;;;25.10;99.90;;;;;;5042379;28;20037;-72
2022/09/06 12:30:43;;;;;;;9.55;6.32;;;25.40;99.90;;;;;;5040041;28;20504;-71
2022/09/06 12:33:26;;;;;;;9.55;6.18;;;25.20;99.90;;;;;;5042641;28;20539;-71
2022/09/06 12:35:52;;;;;;;6.93;5.80;;;25.30;99.90;;;;;;5042055;28;20048;-71
2022/09/06 12:38:23;;;;;;;8.70;5.00;;;25.30;99.90;;;;;;5037960;28;20050;-71
2022/09/06 12:40:53;;;;;;;6.63;5.13;;;25.40;99.90;;;;;;5040573;28;20049;-71
2022/09/06 12:43:19;;;;;;;7.85;4.90;;;25.50;99.90;;;;;;5043077;28;20049;-71
2022/09/06 12:45:49;;;;;;;7.65;4.85;;;25.40;99.90;;;;;;5040441;28;20500;-71
2022/09/06 12:48:26;;;;;;;6.83;5.13;;;25.40;99.90;;;;;;5043893;28;20431;-71
2022/09/06 12:51:19;;;;;;;9.27;4.70;;;25.40;99.90;;;;;;5042486;28;20416;-70
2022/09/06 12:53:53;;;;;;;10.95;4.93;;;25.70;99.90;;;;;;5034574;28;20061;-72
2022/09/06 12:56:21;;;;;;;7.10;4.95;;;25.70;99.90;;;;;;5039969;28;20050;-71
2022/09/06 12:58:46;;;;;;;7.38;5.60;;;25.60;99.90;;;;;;5041645;28;20053;-72
2022/09/06 13:01:23;;;;;;;10.82;5.13;;;25.60;99.90;;;;;;5024736;28;21155;-71
2022/09/06 13:03:57;;;;;;;5.32;4.40;;;25.60;99.90;;;;;;5041183;28;20132;-71